Terminal Aerodrome Forecast
Issued by NWS

Home | Current Version | Previous Version | Text Only | Print | Product List | Glossary On
Versions: 1 2 3 4 5 6 7 8 9 10 11 12 13 14 15 16 17 18
000
FTUS42 KKEY 300019 AAA
TAFMTH
TAF AMD
KMTH 300019Z 3000/3024 05011KT P6SM FEW045
      TEMPO 3000/3004 BKN045
     FM300700 05005KT P6SM SKC
     FM301400 01007KT P6SM FEW045=

USA.gov is the U.S. government's official web portal to all federal, state and local government web resources and services.